sensor_id;sensor_type;location;lat;lon;timestamp;P1;durP1;ratioP1;P2;durP2;ratioP2
41141;SDS011;63666;52.284;20.890;2023-02-12T00:01:42;6.20;;;3.10;;
41141;SDS011;63666;52.284;20.890;2023-02-12T00:04:18;5.80;;;2.70;;
41141;SDS011;63666;52.284;20.890;2023-02-12T00:06:51;5.80;;;2.90;;
41141;SDS011;63666;52.284;20.890;2023-02-12T00:09:23;5.80;;;3.00;;
41141;SDS011;63666;52.284;20.890;2023-02-12T00:11:59;5.70;;;3.10;;
41141;SDS011;63666;52.284;20.890;2023-02-12T00:14:37;5.40;;;2.70;;
41141;SDS011;63666;52.284;20.890;2023-02-12T00:17:10;5.80;;;2.80;;
41141;SDS011;63666;52.284;20.890;2023-02-12T00:19:47;5.70;;;2.60;;
41141;SDS011;63666;52.284;20.890;2023-02-12T00:22:20;4.80;;;2.50;;
41141;SDS011;63666;52.284;20.890;2023-02-12T00:24:50;4.50;;;2.40;;
41141;SDS011;63666;52.284;20.890;2023-02-12T00:27:26;5.60;;;2.80;;
41141;SDS011;63666;52.284;20.890;2023-02-12T00:29:56;5.40;;;2.70;;
41141;SDS011;63666;52.284;20.890;2023-02-12T00:32:31;5.10;;;2.40;;
41141;SDS011;63666;52.284;20.890;2023-02-12T00:35:06;4.50;;;2.40;;
41141;SDS011;63666;52.284;20.890;2023-02-12T00:37:38;5.10;;;2.40;;
41141;SDS011;63666;52.284;20.890;2023-02-12T00:40:17;4.80;;;2.50;;
41141;SDS011;63666;52.284;20.890;2023-02-12T00:42:47;5.50;;;2.40;;
41141;SDS011;63666;52.284;20.890;2023-02-12T00:45:19;5.20;;;2.30;;
41141;SDS011;63666;52.284;20.890;2023-02-12T00:47:50;5.40;;;2.60;;
41141;SDS011;63666;52.284;20.890;2023-02-12T00:50:20;4.30;;;2.30;;
41141;SDS011;63666;52.284;20.890;2023-02-12T00:52:50;4.90;;;2.40;;
41141;SDS011;63666;52.284;20.890;2023-02-12T00:55:23;5.50;;;2.10;;
41141;SDS011;63666;52.284;20.890;2023-02-12T00:57:58;4.80;;;2.10;;
41141;SDS011;63666;52.284;20.890;2023-02-12T01:00:31;4.70;;;2.10;;
41141;SDS011;63666;52.284;20.890;2023-02-12T01:03:04;4.90;;;2.30;;
41141;SDS011;63666;52.284;20.890;2023-02-12T01:05:36;4.20;;;2.00;;
41141;SDS011;63666;52.284;20.890;2023-02-12T01:08:11;4.20;;;2.00;;
41141;SDS011;63666;52.284;20.890;2023-02-12T01:10:44;5.10;;;2.10;;
41141;SDS011;63666;52.284;20.890;2023-02-12T01:13:21;4.30;;;2.10;;
41141;SDS011;63666;52.284;20.890;2023-02-12T01:16:02;4.60;;;2.10;;
41141;SDS011;63666;52.284;20.890;2023-02-12T01:18:40;5.20;;;2.30;;
41141;SDS011;63666;52.284;20.890;2023-02-12T01:21:21;4.40;;;2.10;;
41141;SDS011;63666;52.284;20.890;2023-02-12T01:23:52;4.20;;;1.90;;
41141;SDS011;63666;52.284;20.890;2023-02-12T01:26:28;4.00;;;1.90;;
41141;SDS011;63666;52.284;20.890;2023-02-12T01:29:03;4.60;;;2.00;;
41141;SDS011;63666;52.284;20.890;2023-02-12T01:31:39;4.10;;;1.90;;
41141;SDS011;63666;52.284;20.890;2023-02-12T01:34:10;4.20;;;1.80;;
41141;SDS011;63666;52.284;20.890;2023-02-12T01:36:40;4.30;;;1.90;;
41141;SDS011;63666;52.284;20.890;2023-02-12T01:39:12;4.00;;;1.80;;
41141;SDS011;63666;52.284;20.890;2023-02-12T01:41:48;3.90;;;1.90;;
41141;SDS011;63666;52.284;20.890;2023-02-12T01:44:21;4.40;;;1.90;;
41141;SDS011;63666;52.284;20.890;2023-02-12T01:47:00;3.70;;;1.70;;
41141;SDS011;63666;52.284;20.890;2023-02-12T01:49:38;3.80;;;1.70;;
41141;SDS011;63666;52.284;20.890;2023-02-12T01:52:14;4.00;;;1.80;;
41141;SDS011;63666;52.284;20.890;2023-02-12T01:54:52;4.00;;;1.70;;
41141;SDS011;63666;52.284;20.890;2023-02-12T01:57:28;4.00;;;1.70;;
41141;SDS011;63666;52.284;20.890;2023-02-12T02:00:09;4.60;;;1.70;;
41141;SDS011;63666;52.284;20.890;2023-02-12T02:02:46;3.60;;;1.70;;
41141;SDS011;63666;52.284;20.890;2023-02-12T02:05:30;4.50;;;1.70;;
41141;SDS011;63666;52.284;20.890;2023-02-12T02:08:16;4.00;;;1.70;;
41141;SDS011;63666;52.284;20.890;2023-02-12T02:10:55;4.00;;;1.60;;
41141;SDS011;63666;52.284;20.890;2023-02-12T02:13:49;3.80;;;1.70;;
41141;SDS011;63666;52.284;20.890;2023-02-12T02:16:46;3.90;;;1.60;;
41141;SDS011;63666;52.284;20.890;2023-02-12T02:19:34;4.40;;;1.90;;
41141;SDS011;63666;52.284;20.890;2023-02-12T02:22:27;3.70;;;1.60;;
41141;SDS011;63666;52.284;20.890;2023-02-12T02:28:31;4.10;;;1.70;;
41141;SDS011;63666;52.284;20.890;2023-02-12T02:31:12;3.60;;;1.50;;
41141;SDS011;63666;52.284;20.890;2023-02-12T02:33:52;4.00;;;1.60;;
41141;SDS011;63666;52.284;20.890;2023-02-12T02:36:31;4.00;;;1.70;;
41141;SDS011;63666;52.284;20.890;2023-02-12T02:39:18;3.90;;;1.70;;
41141;SDS011;63666;52.284;20.890;2023-02-12T02:41:59;3.60;;;1.60;;
41141;SDS011;63666;52.284;20.890;2023-02-12T02:44:35;3.60;;;1.50;;
41141;SDS011;63666;52.284;20.890;2023-02-12T02:47:17;3.90;;;1.50;;
41141;SDS011;63666;52.284;20.890;2023-02-12T02:49:54;3.80;;;1.30;;
41141;SDS011;63666;52.284;20.890;2023-02-12T02:52:33;3.50;;;1.60;;
41141;SDS011;63666;52.284;20.890;2023-02-12T02:55:11;3.90;;;1.50;;
41141;SDS011;63666;52.284;20.890;2023-02-12T02:57:46;3.30;;;1.40;;
41141;SDS011;63666;52.284;20.890;2023-02-12T03:00:21;3.30;;;1.40;;
41141;SDS011;63666;52.284;20.890;2023-02-12T03:02:57;3.90;;;1.50;;
41141;SDS011;63666;52.284;20.890;2023-02-12T03:05:36;4.00;;;1.40;;
41141;SDS011;63666;52.284;20.890;2023-02-12T03:08:16;3.60;;;1.40;;
41141;SDS011;63666;52.284;20.890;2023-02-12T03:10:55;3.70;;;1.40;;
41141;SDS011;63666;52.284;20.890;2023-02-12T03:13:35;3.20;;;1.20;;
41141;SDS011;63666;52.284;20.890;2023-02-12T03:16:15;3.40;;;1.40;;
41141;SDS011;63666;52.284;20.890;2023-02-12T03:18:55;3.20;;;1.30;;
41141;SDS011;63666;52.284;20.890;2023-02-12T03:21:52;3.40;;;1.40;;
41141;SDS011;63666;52.284;20.890;2023-02-12T03:24:30;3.50;;;1.30;;
41141;SDS011;63666;52.284;20.890;2023-02-12T03:27:12;3.80;;;1.50;;
41141;SDS011;63666;52.284;20.890;2023-02-12T03:29:48;3.10;;;1.30;;
41141;SDS011;63666;52.284;20.890;2023-02-12T03:32:28;3.40;;;1.30;;
41141;SDS011;63666;52.284;20.890;2023-02-12T03:35:09;3.00;;;1.30;;
41141;SDS011;63666;52.284;20.890;2023-02-12T03:37:52;3.10;;;1.30;;
41141;SDS011;63666;52.284;20.890;2023-02-12T03:40:28;3.10;;;1.30;;
41141;SDS011;63666;52.284;20.890;2023-02-12T03:43:03;3.20;;;1.10;;
41141;SDS011;63666;52.284;20.890;2023-02-12T03:45:45;2.90;;;1.20;;
41141;SDS011;63666;52.284;20.890;2023-02-12T03:48:32;3.10;;;1.20;;
41141;SDS011;63666;52.284;20.890;2023-02-12T03:51:19;2.80;;;1.10;;
41141;SDS011;63666;52.284;20.890;2023-02-12T03:53:55;2.50;;;1.10;;
41141;SDS011;63666;52.284;20.890;2023-02-12T03:56:31;3.10;;;1.20;;
41141;SDS011;63666;52.284;20.890;2023-02-12T03:59:11;3.10;;;1.10;;
41141;SDS011;63666;52.284;20.890;2023-02-12T04:01:43;3.10;;;1.10;;
41141;SDS011;63666;52.284;20.890;2023-02-12T04:04:16;3.30;;;1.20;;
41141;SDS011;63666;52.284;20.890;2023-02-12T04:06:50;2.50;;;1.10;;
41141;SDS011;63666;52.284;20.890;2023-02-12T04:09:25;2.30;;;1.10;;
41141;SDS011;63666;52.284;20.890;2023-02-12T04:12:18;2.70;;;1.10;;
41141;SDS011;63666;52.284;20.890;2023-02-12T04:15:08;3.00;;;1.10;;
41141;SDS011;63666;52.284;20.890;2023-02-12T04:17:53;3.20;;;1.10;;
41141;SDS011;63666;52.284;20.890;2023-02-12T04:20:38;3.00;;;1.20;;
41141;SDS011;63666;52.284;20.890;2023-02-12T04:23:20;2.60;;;1.00;;
41141;SDS011;63666;52.284;20.890;2023-02-12T04:26:06;2.70;;;1.00;;
41141;SDS011;63666;52.284;20.890;2023-02-12T04:28:46;2.50;;;0.90;;
41141;SDS011;63666;52.284;20.890;2023-02-12T04:31:32;2.60;;;0.90;;
41141;SDS011;63666;52.284;20.890;2023-02-12T04:34:16;3.00;;;1.10;;
41141;SDS011;63666;52.284;20.890;2023-02-12T04:36:55;2.30;;;0.90;;
41141;SDS011;63666;52.284;20.890;2023-02-12T04:39:29;2.70;;;1.00;;
41141;SDS011;63666;52.284;20.890;2023-02-12T04:42:04;3.10;;;1.00;;
41141;SDS011;63666;52.284;20.890;2023-02-12T04:47:11;2.80;;;1.00;;
41141;SDS011;63666;52.284;20.890;2023-02-12T04:49:43;3.30;;;1.00;;
41141;SDS011;63666;52.284;20.890;2023-02-12T04:52:18;2.20;;;0.90;;
41141;SDS011;63666;52.284;20.890;2023-02-12T04:54:54;2.30;;;1.00;;
41141;SDS011;63666;52.284;20.890;2023-02-12T04:57:29;2.10;;;0.90;;
41141;SDS011;63666;52.284;20.890;2023-02-12T05:00:07;2.50;;;0.80;;
41141;SDS011;63666;52.284;20.890;2023-02-12T05:02:49;2.20;;;0.90;;
41141;SDS011;63666;52.284;20.890;2023-02-12T05:05:20;2.60;;;0.90;;
41141;SDS011;63666;52.284;20.890;2023-02-12T05:07:56;2.40;;;0.90;;
41141;SDS011;63666;52.284;20.890;2023-02-12T05:10:37;3.00;;;0.90;;
41141;SDS011;63666;52.284;20.890;2023-02-12T05:13:10;2.90;;;0.90;;
41141;SDS011;63666;52.284;20.890;2023-02-12T05:15:44;3.10;;;0.90;;
41141;SDS011;63666;52.284;20.890;2023-02-12T05:18:19;2.80;;;0.90;;
41141;SDS011;63666;52.284;20.890;2023-02-12T05:20:55;3.50;;;1.00;;
41141;SDS011;63666;52.284;20.890;2023-02-12T05:23:31;2.90;;;0.90;;
41141;SDS011;63666;52.284;20.890;2023-02-12T05:26:06;3.00;;;0.90;;
41141;SDS011;63666;52.284;20.890;2023-02-12T05:28:41;2.50;;;0.90;;
41141;SDS011;63666;52.284;20.890;2023-02-12T05:31:15;2.20;;;0.90;;
41141;SDS011;63666;52.284;20.890;2023-02-12T05:33:53;2.40;;;0.70;;
41141;SDS011;63666;52.284;20.890;2023-02-12T05:36:24;3.00;;;0.90;;
41141;SDS011;63666;52.284;20.890;2023-02-12T05:38:58;3.20;;;0.80;;
41141;SDS011;63666;52.284;20.890;2023-02-12T05:41:27;2.80;;;0.90;;
41141;SDS011;63666;52.284;20.890;2023-02-12T05:44:11;2.30;;;0.70;;
41141;SDS011;63666;52.284;20.890;2023-02-12T05:46:46;2.20;;;0.80;;
41141;SDS011;63666;52.284;20.890;2023-02-12T05:49:24;2.30;;;0.80;;
41141;SDS011;63666;52.284;20.890;2023-02-12T05:51:55;2.30;;;0.70;;
41141;SDS011;63666;52.284;20.890;2023-02-12T05:54:31;2.90;;;0.90;;
41141;SDS011;63666;52.284;20.890;2023-02-12T05:57:02;2.80;;;0.80;;
41141;SDS011;63666;52.284;20.890;2023-02-12T05:59:34;3.30;;;0.90;;
41141;SDS011;63666;52.284;20.890;2023-02-12T06:02:12;2.60;;;0.80;;
41141;SDS011;63666;52.284;20.890;2023-02-12T06:04:51;2.80;;;0.80;;
41141;SDS011;63666;52.284;20.890;2023-02-12T06:07:21;2.30;;;0.80;;
41141;SDS011;63666;52.284;20.890;2023-02-12T06:09:54;2.20;;;0.80;;
41141;SDS011;63666;52.284;20.890;2023-02-12T06:12:30;2.70;;;0.80;;
41141;SDS011;63666;52.284;20.890;2023-02-12T06:15:08;2.90;;;1.10;;
41141;SDS011;63666;52.284;20.890;2023-02-12T06:17:38;2.40;;;0.80;;
41141;SDS011;63666;52.284;20.890;2023-02-12T06:20:19;2.80;;;0.80;;
41141;SDS011;63666;52.284;20.890;2023-02-12T06:23:03;2.70;;;0.80;;
41141;SDS011;63666;52.284;20.890;2023-02-12T06:25:41;2.50;;;0.80;;
41141;SDS011;63666;52.284;20.890;2023-02-12T06:28:16;2.30;;;0.80;;
41141;SDS011;63666;52.284;20.890;2023-02-12T06:30:46;3.00;;;0.80;;
41141;SDS011;63666;52.284;20.890;2023-02-12T06:33:18;3.50;;;1.10;;
41141;SDS011;63666;52.284;20.890;2023-02-12T06:35:56;3.30;;;1.20;;
41141;SDS011;63666;52.284;20.890;2023-02-12T06:38:35;3.70;;;1.10;;
41141;SDS011;63666;52.284;20.890;2023-02-12T06:41:08;3.90;;;1.40;;
41141;SDS011;63666;52.284;20.890;2023-02-12T06:43:45;4.80;;;2.00;;
41141;SDS011;63666;52.284;20.890;2023-02-12T06:46:16;4.60;;;1.80;;
41141;SDS011;63666;52.284;20.890;2023-02-12T06:48:54;4.50;;;1.70;;
41141;SDS011;63666;52.284;20.890;2023-02-12T06:51:26;4.80;;;1.80;;
41141;SDS011;63666;52.284;20.890;2023-02-12T06:54:02;5.20;;;2.10;;
41141;SDS011;63666;52.284;20.890;2023-02-12T06:56:40;5.40;;;2.10;;
41141;SDS011;63666;52.284;20.890;2023-02-12T06:59:15;5.70;;;2.20;;
41141;SDS011;63666;52.284;20.890;2023-02-12T07:01:46;5.20;;;2.10;;
41141;SDS011;63666;52.284;20.890;2023-02-12T07:04:18;6.50;;;2.40;;
41141;SDS011;63666;52.284;20.890;2023-02-12T07:06:48;5.80;;;2.20;;
41141;SDS011;63666;52.284;20.890;2023-02-12T07:09:22;4.90;;;2.00;;
41141;SDS011;63666;52.284;20.890;2023-02-12T07:11:58;5.80;;;2.40;;
41141;SDS011;63666;52.284;20.890;2023-02-12T07:14:29;5.40;;;2.10;;
41141;SDS011;63666;52.284;20.890;2023-02-12T07:17:00;5.30;;;2.10;;
41141;SDS011;63666;52.284;20.890;2023-02-12T07:19:36;5.20;;;2.00;;
41141;SDS011;63666;52.284;20.890;2023-02-12T07:22:09;5.80;;;2.00;;
41141;SDS011;63666;52.284;20.890;2023-02-12T07:24:46;5.00;;;1.90;;
41141;SDS011;63666;52.284;20.890;2023-02-12T07:27:20;4.60;;;1.70;;
41141;SDS011;63666;52.284;20.890;2023-02-12T07:29:53;4.50;;;2.10;;
41141;SDS011;63666;52.284;20.890;2023-02-12T07:32:27;4.80;;;2.00;;
41141;SDS011;63666;52.284;20.890;2023-02-12T07:35:06;5.00;;;1.70;;
41141;SDS011;63666;52.284;20.890;2023-02-12T07:37:36;5.00;;;1.70;;
41141;SDS011;63666;52.284;20.890;2023-02-12T07:40:11;5.50;;;1.80;;
41141;SDS011;63666;52.284;20.890;2023-02-12T07:42:45;4.70;;;1.70;;
41141;SDS011;63666;52.284;20.890;2023-02-12T07:45:24;6.10;;;1.90;;
41141;SDS011;63666;52.284;20.890;2023-02-12T07:48:00;5.20;;;1.80;;
41141;SDS011;63666;52.284;20.890;2023-02-12T07:50:31;4.40;;;1.50;;
41141;SDS011;63666;52.284;20.890;2023-02-12T07:53:07;4.40;;;1.60;;
41141;SDS011;63666;52.284;20.890;2023-02-12T07:55:49;4.40;;;1.60;;
41141;SDS011;63666;52.284;20.890;2023-02-12T07:58:22;4.50;;;1.60;;
41141;SDS011;63666;52.284;20.890;2023-02-12T08:00:58;5.00;;;1.50;;
41141;SDS011;63666;52.284;20.890;2023-02-12T08:03:33;4.30;;;1.60;;
41141;SDS011;63666;52.284;20.890;2023-02-12T08:06:09;4.90;;;1.60;;
41141;SDS011;63666;52.284;20.890;2023-02-12T08:08:43;5.80;;;1.60;;
41141;SDS011;63666;52.284;20.890;2023-02-12T08:11:16;4.20;;;1.40;;
41141;SDS011;63666;52.284;20.890;2023-02-12T08:13:47;3.90;;;1.40;;
41141;SDS011;63666;52.284;20.890;2023-02-12T08:16:26;4.10;;;1.40;;
41141;SDS011;63666;52.284;20.890;2023-02-12T08:18:59;3.90;;;1.30;;
41141;SDS011;63666;52.284;20.890;2023-02-12T08:21:50;3.80;;;1.30;;
41141;SDS011;63666;52.284;20.890;2023-02-12T08:24:22;4.30;;;1.40;;
41141;SDS011;63666;52.284;20.890;2023-02-12T08:26:56;4.00;;;1.30;;
41141;SDS011;63666;52.284;20.890;2023-02-12T08:29:34;5.20;;;1.60;;
41141;SDS011;63666;52.284;20.890;2023-02-12T08:32:07;5.20;;;1.70;;
41141;SDS011;63666;52.284;20.890;2023-02-12T08:34:45;4.80;;;1.60;;
41141;SDS011;63666;52.284;20.890;2023-02-12T08:37:21;6.60;;;1.60;;
41141;SDS011;63666;52.284;20.890;2023-02-12T08:40:02;5.20;;;1.80;;
41141;SDS011;63666;52.284;20.890;2023-02-12T08:42:32;6.20;;;1.80;;
41141;SDS011;63666;52.284;20.890;2023-02-12T08:47:34;5.80;;;1.40;;
41141;SDS011;63666;52.284;20.890;2023-02-12T08:50:04;4.70;;;1.50;;
41141;SDS011;63666;52.284;20.890;2023-02-12T08:52:35;4.70;;;1.40;;
41141;SDS011;63666;52.284;20.890;2023-02-12T08:55:13;4.60;;;1.70;;
41141;SDS011;63666;52.284;20.890;2023-02-12T08:57:45;4.70;;;1.50;;
41141;SDS011;63666;52.284;20.890;2023-02-12T09:00:26;5.30;;;1.50;;
41141;SDS011;63666;52.284;20.890;2023-02-12T09:03:00;4.60;;;1.50;;
41141;SDS011;63666;52.284;20.890;2023-02-12T09:05:33;4.80;;;1.60;;
41141;SDS011;63666;52.284;20.890;2023-02-12T09:08:20;4.10;;;1.40;;
41141;SDS011;63666;52.284;20.890;2023-02-12T09:10:50;4.20;;;1.50;;
41141;SDS011;63666;52.284;20.890;2023-02-12T09:13:23;4.90;;;1.50;;
41141;SDS011;63666;52.284;20.890;2023-02-12T09:15:53;4.80;;;1.40;;
41141;SDS011;63666;52.284;20.890;2023-02-12T09:18:24;4.40;;;1.40;;
41141;SDS011;63666;52.284;20.890;2023-02-12T09:21:00;4.40;;;1.40;;
41141;SDS011;63666;52.284;20.890;2023-02-12T09:23:34;3.90;;;1.40;;
41141;SDS011;63666;52.284;20.890;2023-02-12T09:26:07;4.40;;;1.40;;
41141;SDS011;63666;52.284;20.890;2023-02-12T09:28:39;4.30;;;1.50;;
41141;SDS011;63666;52.284;20.890;2023-02-12T09:31:16;3.70;;;1.30;;
41141;SDS011;63666;52.284;20.890;2023-02-12T09:33:51;3.80;;;1.10;;
41141;SDS011;63666;52.284;20.890;2023-02-12T09:36:31;4.00;;;1.50;;
41141;SDS011;63666;52.284;20.890;2023-02-12T09:39:04;4.20;;;1.30;;
41141;SDS011;63666;52.284;20.890;2023-02-12T09:42:03;4.40;;;1.30;;
41141;SDS011;63666;52.284;20.890;2023-02-12T09:44:44;4.50;;;1.70;;
41141;SDS011;63666;52.284;20.890;2023-02-12T09:47:24;4.60;;;1.60;;
41141;SDS011;63666;52.284;20.890;2023-02-12T09:50:10;4.90;;;1.70;;
41141;SDS011;63666;52.284;20.890;2023-02-12T09:52:46;5.80;;;1.70;;
41141;SDS011;63666;52.284;20.890;2023-02-12T09:55:19;6.20;;;1.90;;
41141;SDS011;63666;52.284;20.890;2023-02-12T09:57:54;6.80;;;1.70;;
41141;SDS011;63666;52.284;20.890;2023-02-12T10:00:26;4.60;;;1.70;;
41141;SDS011;63666;52.284;20.890;2023-02-12T10:03:03;5.50;;;1.70;;
41141;SDS011;63666;52.284;20.890;2023-02-12T10:05:45;5.30;;;1.70;;
41141;SDS011;63666;52.284;20.890;2023-02-12T10:08:54;4.80;;;1.90;;
41141;SDS011;63666;52.284;20.890;2023-02-12T10:11:44;7.60;;;2.00;;
41141;SDS011;63666;52.284;20.890;2023-02-12T10:14:38;5.00;;;1.80;;
41141;SDS011;63666;52.284;20.890;2023-02-12T10:17:24;5.90;;;2.00;;
41141;SDS011;63666;52.284;20.890;2023-02-12T10:23:31;5.10;;;1.80;;
41141;SDS011;63666;52.284;20.890;2023-02-12T10:26:14;5.70;;;1.60;;
41141;SDS011;63666;52.284;20.890;2023-02-12T10:28:47;4.20;;;1.70;;
41141;SDS011;63666;52.284;20.890;2023-02-12T10:31:28;6.50;;;2.00;;
41141;SDS011;63666;52.284;20.890;2023-02-12T10:34:08;5.90;;;1.90;;
41141;SDS011;63666;52.284;20.890;2023-02-12T10:36:45;4.60;;;1.70;;
41141;SDS011;63666;52.284;20.890;2023-02-12T10:39:23;4.90;;;1.50;;
41141;SDS011;63666;52.284;20.890;2023-02-12T10:42:00;4.70;;;1.50;;
41141;SDS011;63666;52.284;20.890;2023-02-12T10:44:36;7.10;;;1.70;;
41141;SDS011;63666;52.284;20.890;2023-02-12T10:47:09;5.70;;;1.80;;
41141;SDS011;63666;52.284;20.890;2023-02-12T10:49:46;5.20;;;1.80;;
41141;SDS011;63666;52.284;20.890;2023-02-12T10:52:33;5.30;;;1.70;;
41141;SDS011;63666;52.284;20.890;2023-02-12T10:55:25;5.70;;;1.90;;
41141;SDS011;63666;52.284;20.890;2023-02-12T10:57:58;5.10;;;1.80;;
41141;SDS011;63666;52.284;20.890;2023-02-12T11:00:34;5.10;;;2.00;;
41141;SDS011;63666;52.284;20.890;2023-02-12T11:03:19;4.40;;;1.90;;
41141;SDS011;63666;52.284;20.890;2023-02-12T11:06:07;6.20;;;2.10;;
41141;SDS011;63666;52.284;20.890;2023-02-12T11:08:41;4.80;;;1.90;;
41141;SDS011;63666;52.284;20.890;2023-02-12T11:13:59;5.30;;;2.20;;
41141;SDS011;63666;52.284;20.890;2023-02-12T11:16:44;4.90;;;2.00;;
41141;SDS011;63666;52.284;20.890;2023-02-12T11:19:22;5.00;;;1.80;;
41141;SDS011;63666;52.284;20.890;2023-02-12T11:22:06;4.70;;;1.90;;
41141;SDS011;63666;52.284;20.890;2023-02-12T11:30:13;4.70;;;2.00;;
41141;SDS011;63666;52.284;20.890;2023-02-12T11:35:21;5.20;;;1.70;;
41141;SDS011;63666;52.284;20.890;2023-02-12T11:37:57;5.70;;;1.90;;
41141;SDS011;63666;52.284;20.890;2023-02-12T11:40:31;5.50;;;2.40;;
41141;SDS011;63666;52.284;20.890;2023-02-12T11:43:05;6.20;;;2.20;;
41141;SDS011;63666;52.284;20.890;2023-02-12T11:45:47;6.10;;;2.30;;
41141;SDS011;63666;52.284;20.890;2023-02-12T11:48:26;4.90;;;2.10;;
41141;SDS011;63666;52.284;20.890;2023-02-12T11:51:04;4.80;;;1.90;;
41141;SDS011;63666;52.284;20.890;2023-02-12T11:53:42;4.40;;;2.10;;
41141;SDS011;63666;52.284;20.890;2023-02-12T11:56:19;5.20;;;2.10;;
41141;SDS011;63666;52.284;20.890;2023-02-12T11:58:51;4.60;;;2.30;;
41141;SDS011;63666;52.284;20.890;2023-02-12T12:01:27;4.80;;;2.20;;
41141;SDS011;63666;52.284;20.890;2023-02-12T12:04:08;5.30;;;2.50;;
41141;SDS011;63666;52.284;20.890;2023-02-12T12:09:24;6.00;;;2.50;;
41141;SDS011;63666;52.284;20.890;2023-02-12T12:12:07;4.80;;;2.30;;
41141;SDS011;63666;52.284;20.890;2023-02-12T12:14:48;4.90;;;2.30;;
41141;SDS011;63666;52.284;20.890;2023-02-12T12:20:38;5.30;;;2.20;;
41141;SDS011;63666;52.284;20.890;2023-02-12T12:23:17;4.40;;;2.20;;
41141;SDS011;63666;52.284;20.890;2023-02-12T12:25:57;5.50;;;2.30;;
41141;SDS011;63666;52.284;20.890;2023-02-12T12:28:41;4.70;;;2.30;;
41141;SDS011;63666;52.284;20.890;2023-02-12T12:31:24;4.90;;;2.20;;
41141;SDS011;63666;52.284;20.890;2023-02-12T12:34:02;5.20;;;2.50;;
41141;SDS011;63666;52.284;20.890;2023-02-12T12:37:04;5.10;;;2.30;;
41141;SDS011;63666;52.284;20.890;2023-02-12T12:39:54;4.70;;;2.20;;
41141;SDS011;63666;52.284;20.890;2023-02-12T12:43:08;4.80;;;2.20;;
41141;SDS011;63666;52.284;20.890;2023-02-12T12:48:53;4.60;;;2.40;;
41141;SDS011;63666;52.284;20.890;2023-02-12T12:52:40;5.60;;;2.40;;
41141;SDS011;63666;52.284;20.890;2023-02-12T12:55:41;5.00;;;2.20;;
41141;SDS011;63666;52.284;20.890;2023-02-12T12:58:31;5.70;;;2.50;;
41141;SDS011;63666;52.284;20.890;2023-02-12T13:01:29;4.40;;;2.30;;
41141;SDS011;63666;52.284;20.890;2023-02-12T13:04:38;4.70;;;2.50;;
41141;SDS011;63666;52.284;20.890;2023-02-12T13:07:33;5.00;;;2.50;;
41141;SDS011;63666;52.284;20.890;2023-02-12T13:10:22;4.40;;;2.20;;
41141;SDS011;63666;52.284;20.890;2023-02-12T13:13:14;5.20;;;2.40;;
41141;SDS011;63666;52.284;20.890;2023-02-12T13:15:59;4.60;;;2.10;;
41141;SDS011;63666;52.284;20.890;2023-02-12T13:18:41;4.80;;;2.10;;
41141;SDS011;63666;52.284;20.890;2023-02-12T13:21:31;4.80;;;2.50;;
41141;SDS011;63666;52.284;20.890;2023-02-12T13:24:13;4.40;;;2.30;;
41141;SDS011;63666;52.284;20.890;2023-02-12T13:26:54;4.60;;;2.40;;
41141;SDS011;63666;52.284;20.890;2023-02-12T13:29:36;4.50;;;2.40;;
41141;SDS011;63666;52.284;20.890;2023-02-12T13:32:14;4.70;;;2.50;;
41141;SDS011;63666;52.284;20.890;2023-02-12T13:34:49;4.80;;;2.20;;
41141;SDS011;63666;52.284;20.890;2023-02-12T13:37:28;5.10;;;2.40;;
41141;SDS011;63666;52.284;20.890;2023-02-12T13:40:15;5.00;;;2.40;;
41141;SDS011;63666;52.284;20.890;2023-02-12T13:42:57;4.70;;;2.40;;
41141;SDS011;63666;52.284;20.890;2023-02-12T13:45:43;4.80;;;2.40;;
41141;SDS011;63666;52.284;20.890;2023-02-12T13:48:40;4.80;;;2.40;;
41141;SDS011;63666;52.284;20.890;2023-02-12T13:51:22;4.70;;;2.40;;
41141;SDS011;63666;52.284;20.890;2023-02-12T13:54:15;4.80;;;2.50;;
41141;SDS011;63666;52.284;20.890;2023-02-12T13:57:01;5.00;;;2.70;;
41141;SDS011;63666;52.284;20.890;2023-02-12T13:59:41;5.10;;;2.60;;
41141;SDS011;63666;52.284;20.890;2023-02-12T14:05:28;4.60;;;2.60;;
41141;SDS011;63666;52.284;20.890;2023-02-12T14:08:06;5.20;;;2.70;;
41141;SDS011;63666;52.284;20.890;2023-02-12T14:11:03;5.10;;;2.90;;
41141;SDS011;63666;52.284;20.890;2023-02-12T14:13:47;5.30;;;2.70;;
41141;SDS011;63666;52.284;20.890;2023-02-12T14:17:01;5.00;;;2.70;;
41141;SDS011;63666;52.284;20.890;2023-02-12T14:20:27;4.80;;;2.60;;
41141;SDS011;63666;52.284;20.890;2023-02-12T14:23:23;5.20;;;2.90;;
41141;SDS011;63666;52.284;20.890;2023-02-12T14:26:04;6.00;;;2.60;;
41141;SDS011;63666;52.284;20.890;2023-02-12T14:28:49;4.80;;;2.60;;
41141;SDS011;63666;52.284;20.890;2023-02-12T14:31:41;4.80;;;2.60;;
41141;SDS011;63666;52.284;20.890;2023-02-12T14:34:47;4.80;;;2.70;;
41141;SDS011;63666;52.284;20.890;2023-02-12T14:37:32;5.30;;;2.90;;
41141;SDS011;63666;52.284;20.890;2023-02-12T14:40:43;4.90;;;3.10;;
41141;SDS011;63666;52.284;20.890;2023-02-12T14:43:32;4.90;;;2.90;;
41141;SDS011;63666;52.284;20.890;2023-02-12T14:46:49;4.60;;;2.60;;
41141;SDS011;63666;52.284;20.890;2023-02-12T14:49:26;5.10;;;2.90;;
41141;SDS011;63666;52.284;20.890;2023-02-12T14:52:12;5.00;;;3.00;;
41141;SDS011;63666;52.284;20.890;2023-02-12T14:57:24;4.80;;;2.70;;
41141;SDS011;63666;52.284;20.890;2023-02-12T14:59:57;4.90;;;2.80;;
41141;SDS011;63666;52.284;20.890;2023-02-12T15:02:34;5.00;;;3.10;;
41141;SDS011;63666;52.284;20.890;2023-02-12T15:05:14;4.90;;;2.80;;
41141;SDS011;63666;52.284;20.890;2023-02-12T15:07:53;4.40;;;2.80;;
41141;SDS011;63666;52.284;20.890;2023-02-12T15:10:30;4.80;;;2.60;;
41141;SDS011;63666;52.284;20.890;2023-02-12T15:13:12;4.80;;;3.00;;
41141;SDS011;63666;52.284;20.890;2023-02-12T15:15:53;5.10;;;3.10;;
41141;SDS011;63666;52.284;20.890;2023-02-12T15:18:29;5.10;;;3.10;;
41141;SDS011;63666;52.284;20.890;2023-02-12T15:21:19;5.40;;;3.10;;
41141;SDS011;63666;52.284;20.890;2023-02-12T15:24:02;5.20;;;3.10;;
41141;SDS011;63666;52.284;20.890;2023-02-12T15:26:43;5.40;;;3.00;;
41141;SDS011;63666;52.284;20.890;2023-02-12T15:29:23;5.40;;;3.20;;
41141;SDS011;63666;52.284;20.890;2023-02-12T15:31:57;4.80;;;3.00;;
41141;SDS011;63666;52.284;20.890;2023-02-12T15:34:37;5.40;;;3.40;;
41141;SDS011;63666;52.284;20.890;2023-02-12T15:37:22;5.80;;;3.50;;
41141;SDS011;63666;52.284;20.890;2023-02-12T15:40:01;5.20;;;3.20;;
41141;SDS011;63666;52.284;20.890;2023-02-12T15:42:50;5.50;;;3.30;;
41141;SDS011;63666;52.284;20.890;2023-02-12T15:45:26;5.70;;;3.50;;
41141;SDS011;63666;52.284;20.890;2023-02-12T15:48:01;5.10;;;3.30;;
41141;SDS011;63666;52.284;20.890;2023-02-12T15:50:51;5.80;;;3.60;;
41141;SDS011;63666;52.284;20.890;2023-02-12T15:53:37;5.70;;;3.50;;
41141;SDS011;63666;52.284;20.890;2023-02-12T15:56:12;5.60;;;3.60;;
41141;SDS011;63666;52.284;20.890;2023-02-12T15:58:48;5.50;;;3.60;;
41141;SDS011;63666;52.284;20.890;2023-02-12T16:01:30;5.30;;;3.60;;
41141;SDS011;63666;52.284;20.890;2023-02-12T16:04:05;5.40;;;3.70;;
41141;SDS011;63666;52.284;20.890;2023-02-12T16:06:42;5.80;;;3.60;;
41141;SDS011;63666;52.284;20.890;2023-02-12T16:09:16;5.40;;;3.60;;
41141;SDS011;63666;52.284;20.890;2023-02-12T16:11:58;5.60;;;3.60;;
41141;SDS011;63666;52.284;20.890;2023-02-12T16:14:39;6.50;;;3.80;;
41141;SDS011;63666;52.284;20.890;2023-02-12T16:17:28;5.50;;;3.60;;
41141;SDS011;63666;52.284;20.890;2023-02-12T16:20:03;5.60;;;3.60;;
41141;SDS011;63666;52.284;20.890;2023-02-12T16:22:50;5.30;;;3.50;;